Terminal Aerodrome Forecast
Issued by NWS

Home | Current Version | Previous Version | Text Only | Print | Product List | Glossary On
Versions: 1 2 3 4 5 6 7 8 9 10 11 12 13 14 15 16 17
815
FTPA31 PHFO 232332
TAFHMK
TAF
PHMK 232332Z 2400/2424 05017G25KT P6SM VCSH SCT025 BKN040
      TEMPO 2401/2405 4SM SHRA BR BKN025 OVC040
     FM240500 05010G18KT P6SM VCSH SCT025 BKN040
     FM241700 05012G20KT P6SM FEW030 SCT050=

USA.gov is the U.S. government's official web portal to all federal, state and local government web resources and services.